Time;durP1;ratioP1;P1;durP2;ratioP2;P2;SDS_P1;SDS_P2;PMS_P1;PMS_P2;Temp;Humidity;BMP_temperature;BMP_pressure;BME280_temperature;BME280_humidity;BME280_pressure;Samples;Min_cycle;Max_cycle;Signal;HPM_P1;HPM_P2
2022/02/17 00:01:12;;;;;;;0.60;0.20;;;;;;;;;;6213805;22;20028;-86
2022/02/17 00:03:38;;;;;;;0.38;0.30;;;;;;;;;;6187965;22;20062;-86
2022/02/17 00:06:04;;;;;;;0.43;0.20;;;;;;;;;;6186357;22;20038;-86
2022/02/17 00:08:30;;;;;;;0.30;0.30;;;;;;;;;;6186602;23;20489;-86
2022/02/17 00:10:56;;;;;;;0.90;0.30;;;;;;;;;;6209730;23;20511;-85
2022/02/17 00:13:22;;;;;;;1.02;0.22;;;;;;;;;;6210408;22;20031;-86
2022/02/17 00:15:47;;;;;;;0.25;0.25;;;;;;;;;;6185156;22;20023;-86
2022/02/17 00:18:21;;;;;;;0.50;0.20;;;;;;;;;;6184109;22;20089;-86
2022/02/17 00:20:46;;;;;;;0.50;0.40;;;;;;;;;;6185587;22;20012;-86
2022/02/17 00:23:12;;;;;;;0.68;0.38;;;;;;;;;;6183272;22;20357;-86
2022/02/17 00:25:38;;;;;;;0.30;0.20;;;;;;;;;;6186112;22;20053;-86
2022/02/17 00:28:04;;;;;;;0.50;0.30;;;;;;;;;;6183277;22;20440;-86
2022/02/17 00:30:29;;;;;;;1.15;0.30;;;;;;;;;;6209367;23;20020;-86
2022/02/17 00:32:55;;;;;;;0.22;0.22;;;;;;;;;;6183851;22;20148;-86
2022/02/17 00:35:21;;;;;;;0.30;0.20;;;;;;;;;;6184649;22;20055;-86
2022/02/17 00:37:47;;;;;;;0.70;0.20;;;;;;;;;;6210550;22;20600;-86
2022/02/17 00:40:12;;;;;;;0.22;0.20;;;;;;;;;;6211383;22;20106;-86
2022/02/17 00:42:38;;;;;;;0.10;0.10;;;;;;;;;;6211944;22;20027;-86
2022/02/17 00:45:04;;;;;;;1.15;0.30;;;;;;;;;;6186434;22;20055;-86
2022/02/17 00:47:30;;;;;;;0.52;0.30;;;;;;;;;;6182914;23;20086;-86
2022/02/17 00:49:56;;;;;;;0.40;0.30;;;;;;;;;;6207198;22;20440;-86
2022/02/17 00:52:23;;;;;;;1.73;0.40;;;;;;;;;;6181973;22;20050;-86
2022/02/17 00:54:48;;;;;;;1.63;0.40;;;;;;;;;;6193396;22;20047;-87
2022/02/17 00:57:15;;;;;;;1.40;0.40;;;;;;;;;;6185154;22;20024;-87
2022/02/17 00:59:42;;;;;;;1.80;0.60;;;;;;;;;;6190043;22;20054;-87
2022/02/17 01:02:08;;;;;;;1.73;0.73;;;;;;;;;;6189544;22;20028;-87
2022/02/17 01:04:34;;;;;;;2.63;0.50;;;;;;;;;;6185497;22;20051;-86
2022/02/17 01:06:59;;;;;;;1.70;0.32;;;;;;;;;;6236345;22;20024;-87
2022/02/17 01:09:25;;;;;;;1.25;0.40;;;;;;;;;;6185048;22;20016;-87
2022/02/17 01:11:51;;;;;;;0.20;0.20;;;;;;;;;;6207771;22;20014;-88
2022/02/17 01:14:17;;;;;;;0.65;0.20;;;;;;;;;;6182449;22;20385;-88
2022/02/17 01:16:43;;;;;;;0.65;0.20;;;;;;;;;;6181891;22;20020;-88
2022/02/17 01:19:08;;;;;;;1.27;0.13;;;;;;;;;;6182808;22;20039;-88
2022/02/17 01:21:34;;;;;;;1.00;0.30;;;;;;;;;;6182787;22;20027;-88
2022/02/17 01:24:00;;;;;;;0.60;0.10;;;;;;;;;;6182801;23;20424;-88
2022/02/17 01:26:25;;;;;;;0.45;0.20;;;;;;;;;;6181705;22;20024;-88
2022/02/17 01:28:51;;;;;;;4.28;0.35;;;;;;;;;;6182555;22;20453;-88
2022/02/17 01:31:18;;;;;;;1.90;0.50;;;;;;;;;;6180350;22;20020;-88
2022/02/17 01:33:44;;;;;;;10.15;1.42;;;;;;;;;;6182690;22;20039;-88
2022/02/17 01:36:10;;;;;;;5.72;0.80;;;;;;;;;;6180247;22;20083;-88
2022/02/17 01:38:37;;;;;;;2.80;0.88;;;;;;;;;;6166694;22;20038;-87
2022/02/17 01:41:06;;;;;;;5.25;0.57;;;;;;;;;;6180871;22;20067;-88
2022/02/17 01:43:32;;;;;;;2.83;0.60;;;;;;;;;;6207683;23;20024;-88
2022/02/17 01:45:59;;;;;;;3.10;0.75;;;;;;;;;;6182458;23;20032;-88
2022/02/17 01:48:25;;;;;;;1.88;1.02;;;;;;;;;;6181375;22;20024;-88
2022/02/17 01:50:50;;;;;;;2.50;0.90;;;;;;;;;;6182144;22;20024;-88
2022/02/17 01:53:17;;;;;;;4.75;1.13;;;;;;;;;;6181448;22;20024;-88
2022/02/17 01:55:46;;;;;;;4.82;0.90;;;;;;;;;;6181276;22;20027;-89
2022/02/17 01:58:14;;;;;;;4.68;1.00;;;;;;;;;;6181512;22;20056;-88
2022/02/17 02:00:39;;;;;;;4.07;0.77;;;;;;;;;;6187996;22;20058;-88
2022/02/17 02:03:08;;;;;;;3.05;0.50;;;;;;;;;;6188524;22;20028;-88
2022/02/17 02:05:33;;;;;;;6.47;0.95;;;;;;;;;;6182875;22;20026;-88
2022/02/17 02:07:59;;;;;;;4.78;0.85;;;;;;;;;;6184347;23;20337;-88
2022/02/17 02:10:25;;;;;;;5.90;1.20;;;;;;;;;;6184253;22;20020;-88
2022/02/17 02:12:51;;;;;;;5.68;1.48;;;;;;;;;;6209942;22;20441;-87
2022/02/17 02:15:17;;;;;;;4.80;0.98;;;;;;;;;;6212671;22;20034;-87
2022/02/17 02:17:44;;;;;;;1.92;0.68;;;;;;;;;;6188302;22;20309;-87
2022/02/17 02:20:15;;;;;;;5.35;1.08;;;;;;;;;;6213964;22;20059;-87
2022/02/17 02:22:40;;;;;;;2.63;0.77;;;;;;;;;;6188097;22;20115;-87
2022/02/17 02:25:06;;;;;;;4.93;1.00;;;;;;;;;;6189411;22;20050;-87
2022/02/17 02:27:32;;;;;;;2.78;1.20;;;;;;;;;;6216297;23;20074;-87
2022/02/17 02:29:58;;;;;;;3.53;1.13;;;;;;;;;;6190662;23;20400;-87
2022/02/17 02:32:24;;;;;;;5.10;0.88;;;;;;;;;;6190693;22;20020;-87
2022/02/17 02:34:50;;;;;;;3.00;1.10;;;;;;;;;;6190377;22;20206;-87
2022/02/17 02:37:15;;;;;;;4.72;1.05;;;;;;;;;;6190667;22;20094;-87
2022/02/17 02:39:41;;;;;;;2.47;0.88;;;;;;;;;;6190927;22;20016;-87
2022/02/17 02:42:07;;;;;;;4.95;1.13;;;;;;;;;;6215984;22;20024;-87
2022/02/17 02:44:33;;;;;;;5.63;1.40;;;;;;;;;;6191110;23;20422;-87
2022/02/17 02:47:00;;;;;;;4.43;1.10;;;;;;;;;;6214938;23;20437;-87
2022/02/17 02:49:26;;;;;;;6.45;1.02;;;;;;;;;;6188490;22;20020;-87
2022/02/17 02:51:51;;;;;;;8.55;1.45;;;;;;;;;;6214677;22;20079;-87
2022/02/17 02:54:17;;;;;;;7.57;1.20;;;;;;;;;;6188880;22;20047;-87
2022/02/17 02:56:43;;;;;;;5.82;1.23;;;;;;;;;;6187743;22;20024;-87
2022/02/17 02:59:09;;;;;;;7.25;1.50;;;;;;;;;;6211920;22;20030;-87
2022/02/17 03:01:35;;;;;;;4.05;1.00;;;;;;;;;;6210418;22;20514;-87
2022/02/17 03:04:01;;;;;;;5.03;0.95;;;;;;;;;;6186070;23;20103;-88
2022/02/17 03:06:29;;;;;;;8.57;1.60;;;;;;;;;;6209046;22;20095;-88
2022/02/17 03:08:55;;;;;;;8.48;1.85;;;;;;;;;;6184593;22;20016;-88
2022/02/17 03:11:21;;;;;;;8.10;1.75;;;;;;;;;;6183603;22;20533;-88
2022/02/17 03:13:47;;;;;;;8.40;1.33;;;;;;;;;;6182879;22;20016;-88
2022/02/17 03:16:13;;;;;;;5.85;0.80;;;;;;;;;;6181726;22;20464;-88
2022/02/17 03:18:40;;;;;;;6.30;1.15;;;;;;;;;;6182109;22;20055;-88
2022/02/17 03:21:05;;;;;;;6.25;1.63;;;;;;;;;;6182671;22;20020;-88
2022/02/17 03:23:32;;;;;;;3.45;1.10;;;;;;;;;;6181897;23;20027;-88
2022/02/17 03:25:58;;;;;;;5.88;1.15;;;;;;;;;;6181798;23;20103;-88
2022/02/17 03:28:24;;;;;;;6.53;1.17;;;;;;;;;;6176700;22;20090;-88
2022/02/17 03:30:50;;;;;;;5.03;1.10;;;;;;;;;;6186898;22;20460;-88
2022/02/17 03:33:15;;;;;;;6.47;1.13;;;;;;;;;;6185316;22;20016;-88
2022/02/17 03:35:41;;;;;;;5.07;1.95;;;;;;;;;;6179507;22;20050;-88
2022/02/17 03:38:08;;;;;;;4.15;1.00;;;;;;;;;;6183147;22;20294;-88
2022/02/17 03:40:34;;;;;;;6.18;1.52;;;;;;;;;;6182870;22;20442;-89
2022/02/17 03:43:00;;;;;;;4.70;1.10;;;;;;;;;;6193054;22;20023;-88
2022/02/17 03:45:27;;;;;;;5.55;1.50;;;;;;;;;;6205266;22;20039;-88
2022/02/17 03:48:00;;;;;;;4.30;1.73;;;;;;;;;;6231126;22;20096;-88
2022/02/17 03:50:26;;;;;;;4.88;1.38;;;;;;;;;;6190439;22;20044;-88
2022/02/17 03:52:51;;;;;;;5.35;0.80;;;;;;;;;;6146728;22;20023;-87
2022/02/17 03:55:17;;;;;;;6.22;1.30;;;;;;;;;;6184058;22;20404;-87
2022/02/17 03:57:44;;;;;;;6.50;1.50;;;;;;;;;;6183221;22;20012;-87
2022/02/17 04:00:11;;;;;;;4.82;1.15;;;;;;;;;;6184428;22;20040;-87
2022/02/17 04:02:37;;;;;;;6.82;1.33;;;;;;;;;;6184299;22;20036;-87
2022/02/17 04:05:04;;;;;;;6.28;1.70;;;;;;;;;;6184753;23;20020;-87
2022/02/17 04:07:31;;;;;;;4.40;1.30;;;;;;;;;;6159381;23;20016;-87
2022/02/17 04:09:57;;;;;;;5.50;1.00;;;;;;;;;;6184337;22;20718;-87
2022/02/17 04:12:23;;;;;;;5.82;1.27;;;;;;;;;;6184030;22;20042;-87
2022/02/17 04:14:48;;;;;;;5.35;1.30;;;;;;;;;;6208733;22;20027;-87
2022/02/17 04:17:15;;;;;;;4.88;0.85;;;;;;;;;;6208249;22;20095;-87
2022/02/17 04:19:40;;;;;;;8.68;1.15;;;;;;;;;;6184641;22;20043;-87
2022/02/17 04:22:08;;;;;;;4.95;1.35;;;;;;;;;;6182755;22;20047;-87
2022/02/17 04:24:33;;;;;;;6.13;1.10;;;;;;;;;;6185947;23;20020;-87
2022/02/17 04:26:59;;;;;;;5.22;1.00;;;;;;;;;;6182629;23;20047;-87
2022/02/17 04:29:25;;;;;;;4.68;1.08;;;;;;;;;;6183213;22;20024;-87
2022/02/17 04:31:51;;;;;;;7.78;1.10;;;;;;;;;;6184033;22;20043;-87
2022/02/17 04:34:16;;;;;;;6.85;1.40;;;;;;;;;;6183265;22;20044;-87
2022/02/17 04:36:42;;;;;;;5.90;1.10;;;;;;;;;;6183072;22;20099;-87
2022/02/17 04:39:08;;;;;;;8.60;1.27;;;;;;;;;;6183386;22;20032;-87
2022/02/17 04:44:18;;;;;;;4.47;0.95;;;;;;;;;;6201242;22;20024;-87
2022/02/17 04:46:47;;;;;;;8.13;1.10;;;;;;;;;;6182048;22;20107;-87
2022/02/17 04:49:15;;;;;;;5.75;1.35;;;;;;;;;;6167777;22;20457;-87
2022/02/17 04:51:41;;;;;;;5.40;1.20;;;;;;;;;;6170799;22;20019;-87
2022/02/17 04:55:01;;;;;;;;;;;;;;;;;;;;;
2022/02/17 04:57:36;;;;;;;8.68;1.13;;;;;;;;;;6150056;23;20103;-86
2022/02/17 05:00:01;;;;;;;5.72;1.17;;;;;;;;;;6135456;23;20025;-85
2022/02/17 05:02:27;;;;;;;5.70;1.73;;;;;;;;;;6178164;22;20012;-85
2022/02/17 05:04:53;;;;;;;5.25;1.20;;;;;;;;;;6212890;22;20020;-86
2022/02/17 05:07:18;;;;;;;8.38;1.60;;;;;;;;;;6218244;22;20024;-86
2022/02/17 05:09:44;;;;;;;8.68;1.98;;;;;;;;;;6215446;22;20024;-87
2022/02/17 05:12:10;;;;;;;11.63;2.67;;;;;;;;;;6190465;22;20028;-86
2022/02/17 05:14:36;;;;;;;8.55;1.88;;;;;;;;;;6189777;22;20012;-86
2022/02/17 05:17:02;;;;;;;8.18;1.80;;;;;;;;;;6216254;22;20020;-86
2022/02/17 05:19:28;;;;;;;7.35;1.40;;;;;;;;;;6192051;22;20020;-86
2022/02/17 05:21:53;;;;;;;8.45;1.98;;;;;;;;;;6192254;22;20396;-86
2022/02/17 05:24:19;;;;;;;10.27;2.20;;;;;;;;;;6190149;22;20028;-86
2022/02/17 05:26:45;;;;;;;7.97;1.55;;;;;;;;;;6216600;22;20013;-86
2022/02/17 05:29:11;;;;;;;6.15;1.98;;;;;;;;;;6209845;22;20055;-84
2022/02/17 05:31:36;;;;;;;9.30;1.92;;;;;;;;;;6186629;22;20465;-83
2022/02/17 05:34:02;;;;;;;8.43;1.42;;;;;;;;;;6187468;23;20027;-84
2022/02/17 05:36:28;;;;;;;9.15;1.75;;;;;;;;;;6191449;22;20396;-85
2022/02/17 05:38:53;;;;;;;7.63;1.67;;;;;;;;;;6218123;22;20016;-84
2022/02/17 05:41:19;;;;;;;9.75;1.75;;;;;;;;;;6187353;22;20032;-84
2022/02/17 05:43:45;;;;;;;6.40;1.55;;;;;;;;;;6187588;22;20376;-84
2022/02/17 05:46:11;;;;;;;10.35;1.70;;;;;;;;;;6189767;22;20465;-86
2022/02/17 05:48:37;;;;;;;8.70;2.25;;;;;;;;;;6215239;22;20030;-84
2022/02/17 05:51:02;;;;;;;6.70;1.75;;;;;;;;;;6191622;23;20102;-84
2022/02/17 05:53:28;;;;;;;9.70;2.05;;;;;;;;;;6217881;22;20024;-84
2022/02/17 05:55:54;;;;;;;8.70;1.77;;;;;;;;;;6191662;22;20020;-84
2022/02/17 05:58:19;;;;;;;8.95;2.00;;;;;;;;;;6188224;22;20028;-84
2022/02/17 06:00:45;;;;;;;6.75;1.80;;;;;;;;;;6214488;22;20070;-84
2022/02/17 06:03:11;;;;;;;4.90;1.50;;;;;;;;;;6189411;22;20616;-84
2022/02/17 06:05:37;;;;;;;13.25;1.73;;;;;;;;;;6190564;22;20044;-84
2022/02/17 06:08:05;;;;;;;8.32;1.83;;;;;;;;;;6216278;23;20016;-84
2022/02/17 06:10:32;;;;;;;12.02;2.65;;;;;;;;;;6190996;23;20434;-84
2022/02/17 06:12:58;;;;;;;8.75;2.80;;;;;;;;;;6190862;22;20022;-84
2022/02/17 06:15:23;;;;;;;7.18;1.60;;;;;;;;;;6216106;22;20008;-84
2022/02/17 06:17:49;;;;;;;7.60;2.13;;;;;;;;;;6216606;22;20050;-84
2022/02/17 06:20:15;;;;;;;13.30;1.58;;;;;;;;;;6191206;22;20071;-84
2022/02/17 06:22:47;;;;;;;9.07;1.45;;;;;;;;;;6216422;22;20441;-84
2022/02/17 06:25:15;;;;;;;10.73;1.80;;;;;;;;;;6190671;22;20457;-84
2022/02/17 06:27:40;;;;;;;7.65;2.05;;;;;;;;;;6190168;22;20410;-84
2022/02/17 06:30:07;;;;;;;5.43;1.88;;;;;;;;;;6215382;22;20023;-84
2022/02/17 06:32:33;;;;;;;7.20;1.58;;;;;;;;;;6193550;23;20008;-84
2022/02/17 06:34:59;;;;;;;8.77;1.85;;;;;;;;;;6196733;22;20066;-85
2022/02/17 06:37:24;;;;;;;7.35;1.83;;;;;;;;;;6193264;22;20263;-83
2022/02/17 06:39:50;;;;;;;8.90;2.55;;;;;;;;;;6218011;22;20020;-85
2022/02/17 06:42:16;;;;;;;7.18;2.25;;;;;;;;;;6192385;22;20078;-85
2022/02/17 06:44:41;;;;;;;11.90;2.17;;;;;;;;;;6189980;22;20279;-85
2022/02/17 06:47:07;;;;;;;5.70;1.63;;;;;;;;;;6215633;22;20047;-85
2022/02/17 06:49:34;;;;;;;8.45;2.05;;;;;;;;;;6188383;23;20044;-85
2022/02/17 06:52:01;;;;;;;6.82;1.30;;;;;;;;;;6190537;23;20042;-85
2022/02/17 06:54:26;;;;;;;7.03;1.45;;;;;;;;;;6215965;22;20073;-85
2022/02/17 06:56:52;;;;;;;10.38;1.98;;;;;;;;;;6188577;22;20020;-85
2022/02/17 06:59:19;;;;;;;10.25;1.90;;;;;;;;;;6213410;22;20024;-85
2022/02/17 07:01:45;;;;;;;9.18;1.70;;;;;;;;;;6189314;22;20074;-85
2022/02/17 07:04:11;;;;;;;6.22;1.73;;;;;;;;;;6214415;22;20016;-86
2022/02/17 07:06:37;;;;;;;7.57;1.38;;;;;;;;;;6217152;22;20038;-86
2022/02/17 07:09:03;;;;;;;9.50;2.05;;;;;;;;;;6190448;23;20020;-87
2022/02/17 07:11:28;;;;;;;9.63;1.85;;;;;;;;;;6188333;22;20114;-86
2022/02/17 07:13:57;;;;;;;6.32;1.65;;;;;;;;;;6217355;22;20051;-85
2022/02/17 07:16:23;;;;;;;9.43;1.50;;;;;;;;;;6191181;22;20016;-84
2022/02/17 07:18:49;;;;;;;9.07;1.60;;;;;;;;;;6193976;22;20040;-85
2022/02/17 07:21:14;;;;;;;7.50;1.55;;;;;;;;;;6220916;22;20020;-83
2022/02/17 07:23:40;;;;;;;10.18;1.15;;;;;;;;;;6192424;22;20031;-83
2022/02/17 07:26:07;;;;;;;8.15;1.90;;;;;;;;;;6228888;22;20011;-84
2022/02/17 07:28:33;;;;;;;9.70;2.13;;;;;;;;;;6197858;23;20015;-84
2022/02/17 07:30:59;;;;;;;6.60;1.95;;;;;;;;;;6198415;22;20449;-84
2022/02/17 07:33:25;;;;;;;7.20;1.35;;;;;;;;;;6200836;22;20047;-84
2022/02/17 07:35:50;;;;;;;7.85;1.65;;;;;;;;;;6196164;22;20039;-85
2022/02/17 07:38:16;;;;;;;6.88;1.65;;;;;;;;;;6196112;22;20020;-86
2022/02/17 07:40:42;;;;;;;11.18;1.73;;;;;;;;;;6196357;22;20022;-83
2022/02/17 07:43:09;;;;;;;8.98;2.72;;;;;;;;;;6194101;22;20473;-83
2022/02/17 07:45:36;;;;;;;9.05;1.88;;;;;;;;;;6192437;23;20094;-84
2022/02/17 07:48:01;;;;;;;10.45;2.00;;;;;;;;;;6217138;23;20020;-83
2022/02/17 07:50:27;;;;;;;7.68;1.75;;;;;;;;;;6176797;22;20472;-84
2022/02/17 07:52:56;;;;;;;4.97;1.45;;;;;;;;;;6178048;22;20016;-86
2022/02/17 07:55:24;;;;;;;8.48;1.83;;;;;;;;;;6191420;22;20031;-85
2022/02/17 07:57:50;;;;;;;9.35;1.83;;;;;;;;;;6211307;22;20078;-83
2022/02/17 08:00:16;;;;;;;12.18;1.67;;;;;;;;;;6215278;22;20020;-84
2022/02/17 08:02:42;;;;;;;8.10;1.42;;;;;;;;;;6189715;22;20008;-84
2022/02/17 08:05:09;;;;;;;8.57;1.80;;;;;;;;;;6190021;22;20095;-84
2022/02/17 08:07:37;;;;;;;11.32;2.05;;;;;;;;;;6189706;23;20016;-84
2022/02/17 08:10:04;;;;;;;6.70;1.88;;;;;;;;;;6191632;23;20012;-84
2022/02/17 08:12:30;;;;;;;8.55;1.30;;;;;;;;;;6191415;22;20076;-84
2022/02/17 08:14:57;;;;;;;7.22;1.33;;;;;;;;;;6193736;22;20520;-83
2022/02/17 08:17:23;;;;;;;3.95;1.17;;;;;;;;;;6217776;22;20026;-84
2022/02/17 08:19:49;;;;;;;5.63;1.45;;;;;;;;;;6190248;22;20054;-84
2022/02/17 08:22:15;;;;;;;13.45;1.58;;;;;;;;;;6213151;22;20454;-83
2022/02/17 08:24:40;;;;;;;7.68;1.75;;;;;;;;;;6189950;22;20291;-84
2022/02/17 08:27:06;;;;;;;7.65;1.63;;;;;;;;;;6191121;22;20070;-84
2022/02/17 08:29:32;;;;;;;8.98;2.08;;;;;;;;;;6192573;23;20024;-83
2022/02/17 08:31:58;;;;;;;5.22;1.05;;;;;;;;;;6191405;22;20066;-83
2022/02/17 08:34:23;;;;;;;9.02;1.63;;;;;;;;;;6189702;22;20094;-84
2022/02/17 08:36:52;;;;;;;14.07;1.85;;;;;;;;;;6191669;22;20473;-84
2022/02/17 08:39:18;;;;;;;9.02;1.55;;;;;;;;;;6219663;22;20410;-84
2022/02/17 08:41:43;;;;;;;8.73;1.17;;;;;;;;;;6192555;22;20502;-82
2022/02/17 08:44:09;;;;;;;13.05;1.30;;;;;;;;;;6191131;22;20020;-82
2022/02/17 08:46:35;;;;;;;9.45;1.40;;;;;;;;;;6190384;23;20075;-83
2022/02/17 08:49:01;;;;;;;6.80;1.60;;;;;;;;;;6218463;23;20016;-84
2022/02/17 08:51:29;;;;;;;4.90;1.52;;;;;;;;;;6191809;22;20032;-83
2022/02/17 08:53:56;;;;;;;7.57;1.52;;;;;;;;;;6194777;22;20038;-83
2022/02/17 08:56:22;;;;;;;6.55;1.45;;;;;;;;;;6193013;22;20016;-83
2022/02/17 08:58:48;;;;;;;3.78;0.88;;;;;;;;;;6192233;22;20019;-83
2022/02/17 09:01:14;;;;;;;6.25;1.52;;;;;;;;;;6191479;22;20024;-84
2022/02/17 09:03:39;;;;;;;10.95;2.50;;;;;;;;;;6191142;22;20020;-84
2022/02/17 09:06:05;;;;;;;5.57;1.27;;;;;;;;;;6218216;23;20023;-84
2022/02/17 09:08:31;;;;;;;5.60;1.48;;;;;;;;;;6192268;23;20020;-85
2022/02/17 09:10:57;;;;;;;8.10;2.00;;;;;;;;;;6218830;22;20250;-84
2022/02/17 09:13:23;;;;;;;9.90;1.70;;;;;;;;;;6219746;22;20058;-83
2022/02/17 09:15:49;;;;;;;5.40;1.80;;;;;;;;;;6218234;22;20008;-83
2022/02/17 09:18:15;;;;;;;6.13;1.30;;;;;;;;;;6191480;22;20020;-84
2022/02/17 09:20:40;;;;;;;5.93;1.20;;;;;;;;;;6193077;22;20408;-84
2022/02/17 09:23:06;;;;;;;5.72;1.20;;;;;;;;;;6221522;23;20190;-84
2022/02/17 09:25:34;;;;;;;5.22;1.30;;;;;;;;;;6221199;23;20095;-84
2022/02/17 09:28:00;;;;;;;8.77;1.63;;;;;;;;;;6193341;22;20066;-84
2022/02/17 09:30:26;;;;;;;4.15;1.17;;;;;;;;;;6191638;23;22115;-84
2022/02/17 09:32:52;;;;;;;7.97;1.40;;;;;;;;;;6192268;22;20023;-83
2022/02/17 09:35:17;;;;;;;6.25;1.23;;;;;;;;;;6187471;22;20086;-83
2022/02/17 09:37:43;;;;;;;8.18;1.40;;;;;;;;;;6212681;22;20536;-83
2022/02/17 09:40:10;;;;;;;5.97;1.33;;;;;;;;;;6188470;22;20416;-84
2022/02/17 09:42:39;;;;;;;6.78;1.15;;;;;;;;;;6222369;23;20020;-83
2022/02/17 09:45:08;;;;;;;3.20;1.20;;;;;;;;;;6217400;23;20017;-84
2022/02/17 09:47:34;;;;;;;6.50;1.95;;;;;;;;;;6190702;23;20024;-84
2022/02/17 09:50:00;;;;;;;5.82;1.00;;;;;;;;;;6190351;22;20054;-84
2022/02/17 09:52:27;;;;;;;9.00;1.50;;;;;;;;;;6217199;22;20016;-84
2022/02/17 09:54:53;;;;;;;7.72;1.08;;;;;;;;;;6192862;22;19996;-84
2022/02/17 09:57:22;;;;;;;7.75;1.42;;;;;;;;;;6192430;22;20024;-83
2022/02/17 09:59:48;;;;;;;5.55;1.27;;;;;;;;;;6192117;22;20016;-84
2022/02/17 10:02:24;;;;;;;7.30;1.17;;;;;;;;;;6192582;22;20449;-84
2022/02/17 10:04:57;;;;;;;4.32;1.48;;;;;;;;;;6171291;22;20474;-83
2022/02/17 10:07:31;;;;;;;5.10;1.05;;;;;;;;;;6193295;22;20087;-84
2022/02/17 10:10:03;;;;;;;7.97;0.95;;;;;;;;;;6167471;22;20031;-84
2022/02/17 10:13:05;;;;;;;3.85;1.02;;;;;;;;;;6215398;22;20526;-86
2022/02/17 10:15:36;;;;;;;8.15;1.13;;;;;;;;;;6192125;23;20076;-84
2022/02/17 10:18:12;;;;;;;8.77;0.80;;;;;;;;;;6193057;23;20095;-84
2022/02/17 10:21:06;;;;;;;4.43;0.90;;;;;;;;;;6196470;22;20020;-84
2022/02/17 10:23:33;;;;;;;3.28;0.80;;;;;;;;;;6222981;22;20079;-84
2022/02/17 10:26:02;;;;;;;2.35;0.68;;;;;;;;;;6219987;22;20480;-84
2022/02/17 10:28:42;;;;;;;7.57;1.20;;;;;;;;;;6192485;22;20012;-84
2022/02/17 10:31:22;;;;;;;3.50;0.70;;;;;;;;;;6197990;23;20048;-84
2022/02/17 10:33:52;;;;;;;3.08;0.90;;;;;;;;;;6192257;22;20038;-84
2022/02/17 10:36:32;;;;;;;8.48;1.10;;;;;;;;;;6193231;22;20074;-83
2022/02/17 10:39:22;;;;;;;7.32;1.00;;;;;;;;;;6192776;22;20365;-84
2022/02/17 10:41:48;;;;;;;7.38;1.10;;;;;;;;;;6193442;22;20035;-84
2022/02/17 10:44:17;;;;;;;1.85;0.60;;;;;;;;;;6216848;22;20091;-85
2022/02/17 10:46:43;;;;;;;6.53;1.45;;;;;;;;;;6184511;22;20031;-85
2022/02/17 10:49:10;;;;;;;4.75;0.95;;;;;;;;;;6231378;22;20070;-84
2022/02/17 10:51:36;;;;;;;7.28;1.45;;;;;;;;;;6192821;23;20095;-84
2022/02/17 10:54:01;;;;;;;6.53;1.10;;;;;;;;;;6217177;23;20449;-83
2022/02/17 10:56:31;;;;;;;3.70;1.42;;;;;;;;;;6190264;22;20111;-83
2022/02/17 10:59:02;;;;;;;4.90;1.23;;;;;;;;;;6190380;22;20024;-83
2022/02/17 11:01:28;;;;;;;5.10;0.98;;;;;;;;;;6191846;22;20028;-83
2022/02/17 11:03:57;;;;;;;6.07;1.38;;;;;;;;;;6192707;22;20040;-84
2022/02/17 11:06:23;;;;;;;5.10;1.48;;;;;;;;;;6221349;22;20083;-83
2022/02/17 11:08:51;;;;;;;4.47;0.80;;;;;;;;;;6192419;22;20024;-83
2022/02/17 11:11:20;;;;;;;6.32;1.50;;;;;;;;;;6192078;22;20091;-83
2022/02/17 11:13:47;;;;;;;5.32;1.27;;;;;;;;;;6195112;22;20027;-84
2022/02/17 11:16:15;;;;;;;8.75;1.50;;;;;;;;;;6191442;22;20016;-84
2022/02/17 11:18:41;;;;;;;6.97;1.70;;;;;;;;;;6195093;22;20174;-84
2022/02/17 11:21:14;;;;;;;6.88;1.80;;;;;;;;;;6221227;22;20020;-84
2022/02/17 11:23:40;;;;;;;5.18;0.98;;;;;;;;;;6222170;22;20666;-84
2022/02/17 11:26:23;;;;;;;5.47;1.10;;;;;;;;;;6196296;23;20043;-84
2022/02/17 11:28:48;;;;;;;7.35;1.20;;;;;;;;;;6219289;22;20012;-85
2022/02/17 11:31:14;;;;;;;6.00;0.95;;;;;;;;;;6193480;22;20535;-84
2022/02/17 11:33:42;;;;;;;8.13;0.82;;;;;;;;;;6219565;22;20024;-85
2022/02/17 11:36:07;;;;;;;5.95;1.60;;;;;;;;;;6194698;22;20012;-84
2022/02/17 11:38:36;;;;;;;10.98;3.30;;;;;;;;;;6246700;22;20016;-85
2022/02/17 11:41:13;;;;;;;7.63;2.08;;;;;;;;;;6197103;23;20042;-85
2022/02/17 11:43:42;;;;;;;4.70;2.05;;;;;;;;;;6210240;22;20016;-85
2022/02/17 11:46:09;;;;;;;2.45;0.55;;;;;;;;;;6190854;22;20417;-84
2022/02/17 11:48:51;;;;;;;4.15;1.10;;;;;;;;;;6193426;23;20171;-87
2022/02/17 11:51:22;;;;;;;7.90;1.30;;;;;;;;;;6189799;22;20070;-84
2022/02/17 11:53:51;;;;;;;3.92;0.65;;;;;;;;;;6185134;22;20016;-85
2022/02/17 11:56:16;;;;;;;5.03;0.95;;;;;;;;;;6189512;22;20016;-85
2022/02/17 11:58:49;;;;;;;3.17;0.93;;;;;;;;;;6241991;22;20327;-85
2022/02/17 12:01:27;;;;;;;2.88;0.50;;;;;;;;;;6189278;22;20077;-85
2022/02/17 12:04:04;;;;;;;4.88;1.00;;;;;;;;;;6213995;22;20024;-85
2022/02/17 12:06:41;;;;;;;3.15;0.70;;;;;;;;;;6215814;22;20059;-85
2022/02/17 12:09:09;;;;;;;4.90;1.00;;;;;;;;;;6191767;23;20193;-85
2022/02/17 12:11:41;;;;;;;2.50;0.68;;;;;;;;;;6188765;23;20039;-84
2022/02/17 12:14:08;;;;;;;3.42;0.80;;;;;;;;;;6190764;23;20047;-84
2022/02/17 12:16:38;;;;;;;5.60;0.90;;;;;;;;;;6191417;23;20535;-84
2022/02/17 12:19:19;;;;;;;8.07;0.77;;;;;;;;;;6222080;23;20023;-84
2022/02/17 12:21:47;;;;;;;4.45;0.90;;;;;;;;;;6187756;22;20012;-85
2022/02/17 12:24:15;;;;;;;2.55;0.80;;;;;;;;;;6186677;22;20020;-84
2022/02/17 12:26:47;;;;;;;3.05;0.70;;;;;;;;;;6186841;22;20483;-84
2022/02/17 12:29:34;;;;;;;4.00;0.88;;;;;;;;;;6185845;22;20024;-82
2022/02/17 12:32:01;;;;;;;1.38;0.82;;;;;;;;;;6239775;22;20021;-84
2022/02/17 12:34:28;;;;;;;4.35;1.10;;;;;;;;;;6187414;22;20352;-85
2022/02/17 12:36:55;;;;;;;5.95;0.90;;;;;;;;;;6188641;22;20016;-85
2022/02/17 12:39:25;;;;;;;4.70;0.60;;;;;;;;;;6187058;22;20024;-85
2022/02/17 12:42:04;;;;;;;3.55;1.38;;;;;;;;;;6185373;22;20018;-85
2022/02/17 12:44:39;;;;;;;2.53;0.70;;;;;;;;;;6212603;22;20016;-86
2022/02/17 12:47:09;;;;;;;2.63;0.60;;;;;;;;;;6187606;23;20467;-85
2022/02/17 12:49:36;;;;;;;2.00;0.68;;;;;;;;;;6186409;23;20042;-86
2022/02/17 12:52:15;;;;;;;3.17;0.30;;;;;;;;;;6186387;23;20020;-84
2022/02/17 12:54:43;;;;;;;3.35;0.60;;;;;;;;;;6175526;22;20016;-86
2022/02/17 12:57:16;;;;;;;2.05;0.47;;;;;;;;;;6182234;22;20038;-85
2022/02/17 12:59:42;;;;;;;2.65;0.55;;;;;;;;;;6186769;22;20020;-87
2022/02/17 13:02:09;;;;;;;2.13;0.50;;;;;;;;;;6184478;22;20035;-83
2022/02/17 13:04:36;;;;;;;4.82;0.85;;;;;;;;;;6212682;23;20024;-85
2022/02/17 13:07:04;;;;;;;2.90;0.70;;;;;;;;;;6185861;23;20495;-85
2022/02/17 13:09:30;;;;;;;4.82;0.60;;;;;;;;;;6212051;22;20019;-85
2022/02/17 13:11:57;;;;;;;4.35;0.63;;;;;;;;;;6210561;22;20028;-86
2022/02/17 13:14:27;;;;;;;5.03;0.52;;;;;;;;;;6186167;22;20437;-86
2022/02/17 13:16:57;;;;;;;2.13;0.80;;;;;;;;;;6188147;22;20434;-86
2022/02/17 13:19:27;;;;;;;4.78;0.70;;;;;;;;;;6213468;22;20020;-84
2022/02/17 13:21:53;;;;;;;2.05;0.75;;;;;;;;;;6211962;22;20016;-87
2022/02/17 13:24:22;;;;;;;1.67;0.57;;;;;;;;;;6184843;22;20414;-85
2022/02/17 13:26:47;;;;;;;3.75;0.60;;;;;;;;;;6186261;22;20777;-85
2022/02/17 13:29:14;;;;;;;4.75;0.50;;;;;;;;;;6187876;22;20074;-85
2022/02/17 13:31:41;;;;;;;2.97;0.70;;;;;;;;;;6186100;22;20043;-85
2022/02/17 13:34:12;;;;;;;2.20;0.40;;;;;;;;;;6188222;23;20012;-85
2022/02/17 13:36:41;;;;;;;3.42;0.65;;;;;;;;;;6185764;22;20024;-85
2022/02/17 13:39:16;;;;;;;7.63;3.97;;;;;;;;;;6183380;22;20023;-86
2022/02/17 13:41:58;;;;;;;4.10;0.70;;;;;;;;;;6185579;22;20019;-85
2022/02/17 13:44:38;;;;;;;4.32;0.80;;;;;;;;;;6186413;22;20016;-85
2022/02/17 13:47:10;;;;;;;4.40;0.88;;;;;;;;;;6185628;23;20031;-85
2022/02/17 13:49:37;;;;;;;4.32;0.80;;;;;;;;;;6212085;23;20027;-84
2022/02/17 13:52:04;;;;;;;5.93;0.90;;;;;;;;;;6185174;23;20559;-82
2022/02/17 13:54:52;;;;;;;5.80;1.15;;;;;;;;;;6186719;22;20453;-83
2022/02/17 13:57:19;;;;;;;3.97;0.85;;;;;;;;;;6211892;22;20027;-85
2022/02/17 13:59:44;;;;;;;3.45;0.82;;;;;;;;;;6210697;22;20042;-87
2022/02/17 14:02:11;;;;;;;5.22;1.00;;;;;;;;;;6187090;22;20020;-85
2022/02/17 14:04:37;;;;;;;6.40;1.00;;;;;;;;;;6185773;23;20088;-84
2022/02/17 14:07:04;;;;;;;4.00;0.85;;;;;;;;;;6211768;23;20020;-85
2022/02/17 14:09:32;;;;;;;3.70;0.90;;;;;;;;;;6187797;22;20020;-84
2022/02/17 14:12:00;;;;;;;2.38;0.50;;;;;;;;;;6189990;22;20154;-84
2022/02/17 14:14:25;;;;;;;4.50;1.00;;;;;;;;;;6188209;22;20456;-85
2022/02/17 14:16:53;;;;;;;4.55;0.80;;;;;;;;;;6213417;22;20016;-85
2022/02/17 14:19:20;;;;;;;8.07;1.35;;;;;;;;;;6213591;22;20051;-85
2022/02/17 14:21:46;;;;;;;5.35;1.02;;;;;;;;;;6167620;23;20013;-85
2022/02/17 14:24:12;;;;;;;3.67;0.90;;;;;;;;;;6177312;22;20463;-84
2022/02/17 14:26:38;;;;;;;6.88;1.65;;;;;;;;;;6193295;22;20020;-84
2022/02/17 14:29:04;;;;;;;6.10;0.77;;;;;;;;;;6218971;23;20039;-84
2022/02/17 14:31:30;;;;;;;7.80;1.10;;;;;;;;;;6191949;22;20050;-84
2022/02/17 14:33:56;;;;;;;6.38;1.17;;;;;;;;;;6190183;22;20147;-84
2022/02/17 14:36:22;;;;;;;6.68;1.00;;;;;;;;;;6189161;22;20047;-86
2022/02/17 14:38:48;;;;;;;5.38;1.52;;;;;;;;;;6190067;22;20073;-84
2022/02/17 14:41:14;;;;;;;5.38;0.85;;;;;;;;;;6190857;22;20409;-84
2022/02/17 14:43:40;;;;;;;4.13;0.98;;;;;;;;;;6189556;22;20055;-85
2022/02/17 14:46:06;;;;;;;4.82;0.88;;;;;;;;;;6188531;23;20070;-85
2022/02/17 14:48:35;;;;;;;7.10;1.00;;;;;;;;;;6214532;23;20031;-85